createdAt,value
2018-12-24T00:03:00.568Z,100118.93
2018-12-24T00:06:04.342Z,100128.59
2018-12-24T00:09:08.043Z,100140.81
2018-12-24T00:12:11.529Z,100129.08
2018-12-24T00:15:15.454Z,100151.95
2018-12-24T00:18:19.091Z,100159.97
2018-12-24T00:21:22.966Z,100151.16
2018-12-24T00:24:26.470Z,100163.00
2018-12-24T00:27:30.761Z,100176.60
2018-12-24T00:30:34.270Z,100176.20
2018-12-24T00:33:38.187Z,100172.34
2018-12-24T00:36:41.774Z,100188.48
2018-12-24T00:39:45.284Z,100192.87
2018-12-24T00:42:48.769Z,100199.45
2018-12-24T00:45:52.271Z,100214.30
2018-12-24T00:48:56.135Z,100223.54
2018-12-24T00:51:59.636Z,100220.91
2018-12-24T00:55:03.228Z,100226.73
2018-12-24T00:58:07.149Z,100249.09
2018-12-24T01:01:10.681Z,100249.50
2018-12-24T01:04:14.157Z,100260.40
2018-12-24T01:07:18.092Z,100269.23
2018-12-24T01:10:22.492Z,100268.83
2018-12-24T01:13:26.323Z,100278.82
2018-12-24T01:16:30.201Z,100292.39
2018-12-24T01:19:35.289Z,100303.36
2018-12-24T01:22:38.786Z,100312.13
2018-12-24T01:25:42.303Z,100322.69
2018-12-24T01:28:46.218Z,100328.84
2018-12-24T01:31:49.726Z,100329.73
2018-12-24T01:34:53.782Z,100337.25
2018-12-24T01:37:57.954Z,100336.78
2018-12-24T01:41:01.459Z,100346.41
2018-12-24T01:44:05.345Z,100353.42
2018-12-24T01:47:08.841Z,100358.72
2018-12-24T01:50:12.382Z,100371.88
2018-12-24T01:53:15.873Z,100380.65
2018-12-24T01:56:19.981Z,100381.11
2018-12-24T01:59:23.473Z,100387.27
2018-12-24T02:02:27.750Z,100393.80
2018-12-24T02:06:05.047Z,100396.06
2018-12-24T02:09:07.979Z,100406.64
2018-12-24T02:12:11.641Z,100417.58
2018-12-24T02:15:14.550Z,100419.32
2018-12-24T02:18:17.491Z,100425.88
2018-12-24T02:21:21.201Z,100433.80
2018-12-24T02:24:24.129Z,100440.33
2018-12-24T02:27:27.741Z,100438.09
2018-12-24T02:30:30.651Z,100447.73
2018-12-24T02:33:33.975Z,100458.72
2018-12-24T02:36:37.633Z,100463.97
2018-12-24T02:39:40.557Z,100473.20
2018-12-24T02:42:52.041Z,100475.42
2018-12-24T02:45:49.023Z,100468.83
2018-12-24T02:48:53.070Z,100473.63
2018-12-24T02:51:56.852Z,100484.15
2018-12-24T02:55:00.498Z,100488.09
2018-12-24T02:58:04.113Z,100487.67
2018-12-24T03:01:07.364Z,100490.30
2018-12-24T03:04:10.969Z,100502.14
2018-12-24T03:07:14.612Z,100509.58
2018-12-24T03:10:17.546Z,100514.84
2018-12-24T03:13:20.880Z,100524.50
2018-12-24T03:16:23.860Z,100531.11
2018-12-24T03:19:27.127Z,100531.11
2018-12-24T03:22:30.087Z,100530.23
2018-12-24T03:25:33.304Z,100523.62
2018-12-24T03:28:36.961Z,100541.17
2018-12-24T03:31:39.900Z,100533.30
2018-12-24T03:34:43.242Z,100535.05
2018-12-24T03:37:46.188Z,100545.13
2018-12-24T03:40:50.171Z,100556.55
2018-12-24T03:43:53.417Z,100564.88
2018-12-24T03:46:56.366Z,100567.51
2018-12-24T03:49:59.978Z,100567.94
2018-12-24T03:53:03.219Z,100576.70
2018-12-24T03:56:06.174Z,100577.16
2018-12-24T03:59:09.792Z,100582.84
2018-12-24T04:02:12.732Z,100593.41
2018-12-24T04:05:15.641Z,100596.03
2018-12-24T04:08:18.586Z,100593.40
2018-12-24T04:11:23.963Z,100607.88
2018-12-24T04:14:27.400Z,100614.01
2018-12-24T04:17:31.106Z,100624.55
2018-12-24T04:20:34.044Z,100626.75
2018-12-24T04:23:37.439Z,100629.83
2018-12-24T04:26:40.668Z,100634.64
2018-12-24T04:29:43.602Z,100641.22
2018-12-24T04:32:47.336Z,100658.31
2018-12-24T04:35:50.943Z,100667.97
2018-12-24T04:38:54.623Z,100672.36
2018-12-24T04:41:57.902Z,100672.80
2018-12-24T04:45:00.842Z,100673.23
2018-12-24T04:48:03.776Z,100682.89
2018-12-24T04:51:06.685Z,100685.52
2018-12-24T04:54:10.359Z,100697.78
2018-12-24T04:57:13.262Z,100705.27
2018-12-24T05:00:16.329Z,100698.22
2018-12-24T05:03:19.956Z,100708.77
2018-12-24T05:06:23.222Z,100718.42
2018-12-24T05:09:27.279Z,100724.57
2018-12-24T05:12:30.185Z,100733.77
2018-12-24T05:15:33.444Z,100742.98
2018-12-24T05:18:36.793Z,100751.30
2018-12-24T05:21:40.745Z,100763.16
2018-12-24T05:24:44.378Z,100771.51
2018-12-24T05:27:47.624Z,100780.27
2018-12-24T05:30:51.230Z,100792.08
2018-12-24T05:33:54.164Z,100808.31
2018-12-24T05:36:57.396Z,100813.14
2018-12-24T05:40:00.334Z,100817.07
2018-12-24T05:43:03.248Z,100834.23
2018-12-24T05:46:06.555Z,100835.95
2018-12-24T05:49:09.752Z,100833.34
2018-12-24T05:52:13.048Z,100846.95
2018-12-24T05:55:17.672Z,100853.53
2018-12-24T05:58:20.583Z,100853.94
2018-12-24T06:01:24.188Z,100866.27
2018-12-24T06:04:27.721Z,100875.92
2018-12-24T06:07:30.656Z,100885.58
2018-12-24T06:10:33.984Z,100900.03
2018-12-24T06:13:37.267Z,100912.33
2018-12-24T06:16:40.571Z,100924.14
2018-12-24T06:19:43.902Z,100928.52
2018-12-24T06:22:46.875Z,100947.41
2018-12-24T06:25:50.215Z,100957.56
2018-12-24T06:28:53.517Z,100970.23
2018-12-24T06:31:56.808Z,100979.92
2018-12-24T06:35:00.337Z,100974.63
2018-12-24T06:38:03.287Z,100980.78
2018-12-24T06:41:06.197Z,100983.35
2018-12-24T06:44:09.556Z,100984.24
2018-12-24T06:47:12.489Z,100993.00
2018-12-24T06:50:15.830Z,101001.43
2018-12-24T06:53:18.968Z,101010.17
2018-12-24T06:56:21.875Z,101019.36
2018-12-24T06:59:25.817Z,101033.02
2018-12-24T07:02:29.167Z,101027.71
2018-12-24T07:05:32.084Z,101030.30
2018-12-24T07:08:35.404Z,101037.30
2018-12-24T07:11:38.319Z,101051.31
2018-12-24T07:14:41.598Z,101058.77
2018-12-24T07:17:44.523Z,101059.21
2018-12-24T07:20:48.035Z,101064.98
2018-12-24T07:23:50.970Z,101068.04
2018-12-24T07:26:53.919Z,101073.56
2018-12-24T07:29:57.167Z,101078.00
2018-12-24T07:33:00.102Z,101082.05
2018-12-24T07:36:03.420Z,101085.97
2018-12-24T07:39:07.089Z,101084.08
2018-12-24T07:42:10.462Z,101088.48
2018-12-24T07:45:13.785Z,101099.94
2018-12-24T07:48:17.241Z,101104.20
2018-12-24T07:51:20.173Z,101108.70
2018-12-24T07:54:23.875Z,101117.92
2018-12-24T07:57:26.817Z,101126.87
2018-12-24T08:00:29.720Z,101123.46
2018-12-24T08:03:34.129Z,101132.05
2018-12-24T08:06:37.396Z,101132.97
2018-12-24T08:09:40.347Z,101130.84
2018-12-24T08:12:43.311Z,101141.05
2018-12-24T08:15:46.521Z,101144.95
2018-12-24T08:18:49.568Z,101150.08
2018-12-24T08:21:52.890Z,101158.48
2018-12-24T08:24:55.823Z,101160.11
2018-12-24T08:27:59.412Z,101174.78
2018-12-24T08:31:02.693Z,101189.59
2018-12-24T08:34:06.091Z,101196.17
2018-12-24T08:37:09.363Z,101203.31
2018-12-24T08:40:12.681Z,101208.00
2018-12-24T08:43:15.621Z,101221.70
2018-12-24T08:46:18.547Z,101243.95
2018-12-24T08:49:21.487Z,101254.02
2018-12-24T08:52:24.407Z,101269.19
2018-12-24T08:55:27.353Z,101275.84
2018-12-24T08:58:30.689Z,101289.36
2018-12-24T09:01:33.964Z,101303.51
2018-12-24T09:04:37.178Z,101325.14
2018-12-24T09:07:40.479Z,101324.11
2018-12-24T09:10:43.468Z,101337.87
2018-12-24T09:13:46.681Z,101357.92
2018-12-24T09:16:50.007Z,101360.13
2018-12-24T09:19:53.644Z,101361.84
2018-12-24T09:22:57.552Z,101373.08
2018-12-24T09:26:00.497Z,101379.55
2018-12-24T09:29:03.501Z,101378.44
2018-12-24T09:32:06.459Z,101376.17
2018-12-24T09:35:09.392Z,101385.40
2018-12-24T09:38:12.400Z,101391.58
2018-12-24T09:41:16.104Z,101398.58
2018-12-24T09:44:19.147Z,101401.83
2018-12-24T09:47:22.392Z,101409.81
2018-12-24T09:50:25.716Z,101420.39
2018-12-24T09:53:29.080Z,101432.55
2018-12-24T09:56:32.370Z,101431.62
2018-12-24T09:59:35.287Z,101443.84
2018-12-24T10:02:48.622Z,101440.67
2018-12-24T10:05:56.638Z,101453.89
2018-12-24T10:09:05.258Z,101467.17
2018-12-24T10:12:08.327Z,101464.33
2018-12-24T10:15:11.240Z,101471.16
2018-12-24T10:18:14.195Z,101468.53
2018-12-24T10:21:17.536Z,101460.36
2018-12-24T10:24:20.494Z,101464.59
2018-12-24T10:27:23.460Z,101460.48
2018-12-24T10:30:26.367Z,101461.09
2018-12-24T10:33:30.679Z,101479.41
2018-12-24T10:36:33.611Z,101481.22
2018-12-24T10:39:36.897Z,101469.94
2018-12-24T10:42:59.293Z,101469.24
2018-12-24T10:46:15.180Z,101475.17
2018-12-24T10:49:37.839Z,101476.34
2018-12-24T10:52:53.501Z,101487.22
2018-12-24T10:56:15.866Z,101431.44
2018-12-24T10:59:33.223Z,101487.19
2018-12-24T11:02:55.611Z,101485.83
2018-12-24T11:06:17.906Z,101485.13
2018-12-24T11:09:40.667Z,101490.91
2018-12-24T11:16:54.114Z,101487.84
2018-12-24T11:20:16.493Z,101488.27
2018-12-24T11:23:32.468Z,101419.55
2018-12-24T11:26:48.055Z,101490.27
2018-12-24T11:30:10.442Z,101495.10
2018-12-24T11:33:25.854Z,101503.81
2018-12-24T11:36:48.579Z,101493.89
2018-12-24T11:40:03.873Z,101418.07
2018-12-24T11:43:26.582Z,101485.53
2018-12-24T11:46:42.264Z,101502.99
2018-12-24T11:50:04.781Z,101498.39
2018-12-24T11:53:20.580Z,101500.10
2018-12-24T11:56:43.250Z,101500.86
2018-12-24T11:59:58.706Z,101511.77
2018-12-24T12:03:21.363Z,101507.40
2018-12-24T12:06:37.646Z,101516.43
2018-12-24T12:10:00.367Z,101511.28
2018-12-24T12:13:15.941Z,101524.84
2018-12-24T12:16:38.385Z,101530.75
2018-12-24T12:19:53.937Z,101534.54
2018-12-24T12:23:16.323Z,101493.55
2018-12-24T12:26:32.373Z,101548.45
2018-12-24T12:29:54.740Z,101552.76
2018-12-24T12:33:10.615Z,101548.70
2018-12-24T12:36:33.315Z,101553.68
2018-12-24T12:39:49.304Z,101555.36
2018-12-24T12:43:11.690Z,101459.41
2018-12-24T12:46:27.689Z,101473.93
2018-12-24T12:49:43.015Z,101569.97
2018-12-24T12:53:05.426Z,101568.58
2018-12-24T12:56:21.320Z,101548.92
2018-12-24T12:59:36.699Z,101570.61
2018-12-24T13:02:59.394Z,101562.36
2018-12-24T13:06:15.476Z,101503.53
2018-12-24T13:09:31.297Z,101580.56
2018-12-24T13:12:54.049Z,101479.08
2018-12-24T13:16:09.044Z,101579.17
2018-12-24T13:19:24.101Z,101579.31
2018-12-24T13:22:39.493Z,101589.84
2018-12-24T13:25:55.079Z,101583.97
2018-12-24T13:29:10.207Z,101587.20
2018-12-24T13:32:32.916Z,101585.50
2018-12-24T13:35:48.890Z,101590.20
2018-12-24T13:39:11.588Z,101600.44
2018-12-24T13:42:26.665Z,101611.56
2018-12-24T13:45:49.073Z,101508.92
2018-12-24T13:49:04.449Z,101627.09
2018-12-24T13:52:27.156Z,101626.43
2018-12-24T13:55:42.331Z,101626.55
2018-12-24T13:59:04.695Z,101624.00
2018-12-24T14:02:19.707Z,101636.19
2018-12-24T14:05:42.444Z,101650.66
2018-12-24T14:08:58.100Z,101597.38
2018-12-24T14:12:20.482Z,101649.69
2018-12-24T14:15:35.848Z,101652.31
2018-12-24T14:18:54.770Z,101570.55
2018-12-24T14:22:10.369Z,101659.61
2018-12-24T14:25:32.737Z,101659.66
2018-12-24T14:28:48.903Z,101629.09
2018-12-24T14:32:11.284Z,101678.53
2018-12-24T14:35:26.358Z,101683.21
2018-12-24T14:38:41.514Z,101694.94
2018-12-24T14:42:04.485Z,101695.83
2018-12-24T14:45:20.348Z,101697.58
2018-12-24T14:48:42.861Z,101688.88
2018-12-24T14:51:59.034Z,101700.97
2018-12-24T14:55:02.196Z,101696.69
2018-12-24T14:58:17.771Z,101712.63
2018-12-24T15:01:40.134Z,101711.75
2018-12-24T15:04:56.054Z,101724.26
2018-12-24T15:08:18.779Z,101730.96
2018-12-24T15:11:34.736Z,101620.19
2018-12-24T15:14:57.409Z,101740.06
2018-12-24T15:18:13.688Z,101743.42
2018-12-24T15:21:29.627Z,101740.84
2018-12-24T15:24:52.567Z,101747.25
2018-12-24T15:28:07.908Z,101738.09
2018-12-24T15:31:23.853Z,101738.63
2018-12-24T15:34:39.724Z,101743.77
2018-12-24T15:38:02.399Z,101644.59
2018-12-24T15:41:17.518Z,101744.95
2018-12-24T15:44:40.490Z,101650.26
2018-12-24T15:47:56.093Z,101745.05
2018-12-24T15:51:18.736Z,101747.47
2018-12-24T15:54:33.761Z,101702.08
2018-12-24T15:57:56.127Z,101745.27
2018-12-24T16:01:11.531Z,101748.90
2018-12-24T16:04:33.927Z,101752.13
2018-12-24T16:07:49.903Z,101751.41
2018-12-24T16:11:12.291Z,101744.61
2018-12-24T16:14:27.740Z,101739.47
2018-12-24T16:17:50.127Z,101755.69
2018-12-24T16:20:53.707Z,101757.77
2018-12-24T16:24:16.072Z,101757.70
2018-12-24T16:27:31.873Z,101704.86
2018-12-24T16:30:55.260Z,101768.67
2018-12-24T16:34:11.056Z,101776.06
2018-12-24T16:37:26.332Z,101674.30
2018-12-24T16:40:49.056Z,101691.86
2018-12-24T16:44:04.915Z,101779.21
2018-12-24T16:47:20.190Z,101796.63
2018-12-24T16:50:42.861Z,101794.62
2018-12-24T16:53:58.577Z,101777.73
2018-12-24T16:57:21.279Z,101791.45
2018-12-24T17:00:37.192Z,101802.28
2018-12-24T17:03:59.576Z,101809.45
2018-12-24T17:07:15.774Z,101807.02
2018-12-24T17:10:38.805Z,101821.98
2018-12-24T17:13:54.380Z,101700.39
2018-12-24T17:17:09.697Z,101801.14
2018-12-24T17:20:25.526Z,101816.75
2018-12-24T17:23:40.741Z,101814.61
2018-12-24T17:27:03.191Z,101823.41
2018-12-24T17:30:18.740Z,101717.56
2018-12-24T17:33:34.137Z,101818.16
2018-12-24T17:36:56.499Z,101819.68
2018-12-24T17:40:12.607Z,101811.69
2018-12-24T17:43:35.432Z,101742.47
2018-12-24T17:46:51.164Z,101802.72
2018-12-24T17:50:06.258Z,101814.04
2018-12-24T17:53:28.636Z,101812.98
2018-12-24T17:56:44.540Z,101824.71
2018-12-24T18:00:06.944Z,101812.13
2018-12-24T18:03:22.603Z,101830.81
2018-12-24T18:06:45.917Z,101835.81
2018-12-24T18:10:00.933Z,101837.42
2018-12-24T18:13:23.574Z,101858.35
2018-12-24T18:16:38.576Z,101868.25
2018-12-24T18:19:53.772Z,101857.01
2018-12-24T18:23:16.524Z,101866.95
2018-12-24T18:26:32.463Z,101875.03
2018-12-24T18:29:54.835Z,101880.08
2018-12-24T18:33:10.791Z,101876.50
2018-12-24T18:36:33.555Z,101860.87
2018-12-24T18:39:49.337Z,101874.64
2018-12-24T18:43:11.728Z,101890.54
2018-12-24T18:46:27.679Z,101894.44
2018-12-24T18:49:50.175Z,101900.69
2018-12-24T18:52:53.080Z,101898.69
2018-12-24T18:56:16.126Z,101898.56
2018-12-24T18:59:32.199Z,101897.42
2018-12-24T19:02:54.584Z,101910.16
2018-12-24T19:06:10.597Z,101909.33
2018-12-24T19:09:33.414Z,101901.16
2018-12-24T19:12:49.144Z,101825.00
2018-12-24T19:16:11.630Z,101897.84
2018-12-24T19:19:26.696Z,101849.48
2018-12-24T19:22:49.476Z,101898.83
2018-12-24T19:26:04.960Z,101904.16
2018-12-24T19:29:27.460Z,101869.69
2018-12-24T19:32:42.525Z,101895.86
2018-12-24T19:35:57.810Z,101899.98
2018-12-24T19:39:20.606Z,101893.30
2018-12-24T19:42:36.397Z,101894.62
2018-12-24T19:45:51.868Z,101897.24
2018-12-24T19:49:14.235Z,101895.28
2018-12-24T19:52:30.485Z,101907.69
2018-12-24T19:55:54.927Z,101893.08
2018-12-24T19:59:30.273Z,101914.08
2018-12-24T20:02:52.651Z,101913.35
2018-12-24T20:06:08.350Z,101919.02
2018-12-24T20:09:30.711Z,101918.20
2018-12-24T20:12:45.937Z,101926.00
2018-12-24T20:16:08.638Z,101934.14
2018-12-24T20:19:23.900Z,101928.84
2018-12-24T20:22:46.660Z,101948.43
2018-12-24T20:26:02.259Z,101951.53
2018-12-24T20:29:17.687Z,101959.06
2018-12-24T20:32:40.075Z,101965.63
2018-12-24T20:35:43.367Z,101956.31
2018-12-24T20:38:58.554Z,101962.11
2018-12-24T20:42:20.909Z,101958.89
2018-12-24T20:45:35.945Z,101959.95
2018-12-24T20:48:58.644Z,101961.02
2018-12-24T20:52:14.795Z,101956.96
2018-12-24T20:55:30.132Z,101957.08
2018-12-24T20:58:33.054Z,101969.67
2018-12-24T21:01:48.692Z,101968.25
2018-12-24T21:05:11.092Z,101970.33
2018-12-24T21:08:26.859Z,101958.46
2018-12-24T21:11:49.239Z,101972.66
2018-12-24T21:15:04.303Z,101970.56
2018-12-24T21:18:26.779Z,101963.53
2018-12-24T21:21:42.305Z,101869.12
2018-12-24T21:25:04.824Z,101958.83
2018-12-24T21:28:20.380Z,101954.89
2018-12-24T21:31:43.124Z,101951.42
2018-12-24T21:34:58.104Z,101859.53
2018-12-24T21:38:13.474Z,101946.13
2018-12-24T21:41:35.885Z,101928.02
2018-12-24T21:44:51.047Z,101954.87
2018-12-24T21:48:06.378Z,101866.45
2018-12-24T21:51:28.740Z,101956.63
2018-12-24T21:54:44.676Z,101955.42
2018-12-24T21:58:07.771Z,101960.55
2018-12-24T22:01:23.267Z,101957.52
2018-12-24T22:04:45.652Z,101952.27
2018-12-24T22:08:01.645Z,101957.20
2018-12-24T22:11:17.904Z,101964.55
2018-12-24T22:14:32.990Z,101965.09
2018-12-24T22:17:55.642Z,101966.70
2018-12-24T22:21:10.823Z,101967.17
2018-12-24T22:24:34.074Z,101885.52
2018-12-24T22:27:50.039Z,101969.00
2018-12-24T22:31:12.444Z,101969.80
2018-12-24T22:34:27.759Z,101968.89
2018-12-24T22:37:30.678Z,101957.52
2018-12-24T22:40:45.986Z,101959.53
2018-12-24T22:44:08.388Z,101965.86
2018-12-24T22:47:23.695Z,101956.31
2018-12-24T22:50:46.388Z,101948.56
2018-12-24T22:54:01.719Z,101951.31
2018-12-24T22:57:24.752Z,101953.56
2018-12-24T23:00:46.455Z,101953.88
2018-12-24T23:04:10.717Z,101956.02
2018-12-24T23:07:26.471Z,101937.16
2018-12-24T23:10:42.240Z,101932.86
2018-12-24T23:14:04.859Z,101934.30
2018-12-24T23:17:20.234Z,101920.01
2018-12-24T23:20:35.740Z,101931.25
2018-12-24T23:23:50.800Z,101929.44
2018-12-24T23:27:06.453Z,101928.78
2018-12-24T23:30:21.390Z,101924.64
2018-12-24T23:33:36.575Z,101910.37
2018-12-24T23:36:51.844Z,101917.20
2018-12-24T23:40:07.554Z,101920.42
2018-12-24T23:43:22.564Z,101927.04
2018-12-24T23:46:38.014Z,101935.46
2018-12-24T23:49:55.271Z,101923.77
2018-12-24T23:53:10.632Z,101929.88
2018-12-24T23:56:25.686Z,101925.50
2018-12-24T23:59:41.129Z,101923.08
